Terminal Aerodrome Forecast
Issued by NWS

Home | Current Version | Previous Version | Text Only | Print | Product List | Glossary On
Versions: 1 2 3 4 5 6 7 8 9 10 11 12 13 14 15 16 17 18 19 20 21
000
FTUS42 KTAE 212339
TAFVLD
TAF
KVLD 212339Z 2200/2224 14006KT P6SM SCT040 BKN060
     FM220600 12006KT 3SM RA BR BKN015 OVC050
     FM220900 10004KT 3SM -RA BR OVC007
     FM221500 11006KT P6SM VCSH BKN015
     FM222000 11009KT P6SM SCT025=

USA.gov is the U.S. government's official web portal to all federal, state and local government web resources and services.